Terminal Aerodrome Forecast
Issued by NWS Greer, SC

Home | Current Version | Previous Version | Text Only | Print | Product List | Glossary On
Versions: 1 2 3 4 5 6 7 8 9 10 11 12 13 14
489
FTUS42 KGSP 111720
TAFGSP
TAF
KGSP 111720Z 1118/1218 22003KT P6SM FEW200
     FM120000 VRB03KT P6SM SCT250
     FM120600 04004KT P6SM BKN060
     FM121500 04005KT P6SM OVC030=

USA.gov is the U.S. government's official web portal to all federal, state and local government web resources and services.